Time;durP1;ratioP1;P1;durP2;ratioP2;P2;SDS_P1;SDS_P2;PMS_P1;PMS_P2;Temp;Humidity;BMP_temperature;BMP_pressure;BME280_temperature;BME280_humidity;BME280_pressure;Samples;Min_cycle;Max_cycle;Signal;HPM_P1;HPM_P2
2023/11/24 00:00:36;;;;;;;34.80;6.22;;;12.40;99.90;;;;;;5067126;28;20024;-78
2023/11/24 00:03:02;;;;;;;28.85;5.75;;;12.40;99.90;;;;;;5059908;28;20108;-78
2023/11/24 00:05:28;;;;;;;26.55;6.03;;;12.40;99.90;;;;;;5062029;28;20028;-78
2023/11/24 00:07:54;;;;;;;31.80;5.90;;;12.40;99.90;;;;;;5055900;28;20041;-77
2023/11/24 00:10:19;;;;;;;30.13;5.97;;;12.40;99.90;;;;;;5068172;28;20034;-78
2023/11/24 00:12:46;;;;;;;29.00;5.70;;;12.40;99.90;;;;;;5068077;28;20031;-78
2023/11/24 00:15:11;;;;;;;24.13;5.03;;;12.40;99.90;;;;;;5059032;28;21352;-78
2023/11/24 00:17:37;;;;;;;30.58;6.45;;;12.20;99.90;;;;;;5067292;28;20028;-76
2023/11/24 00:20:10;;;;;;;36.08;6.60;;;12.20;99.90;;;;;;5063009;28;20017;-78
2023/11/24 00:22:36;;;;;;;26.40;6.03;;;12.20;99.90;;;;;;5059840;28;20501;-78
2023/11/24 00:25:02;;;;;;;32.30;5.53;;;12.20;99.90;;;;;;5061589;28;20029;-78
2023/11/24 00:27:28;;;;;;;26.77;6.13;;;12.10;99.90;;;;;;5064031;28;20120;-78
2023/11/24 00:29:54;;;;;;;26.73;5.07;;;12.20;99.90;;;;;;5071126;28;20090;-78
2023/11/24 00:32:19;;;;;;;28.80;5.47;;;12.10;99.90;;;;;;5063655;28;20559;-78
2023/11/24 00:34:45;;;;;;;30.58;5.60;;;12.10;99.90;;;;;;5067760;28;20032;-78
2023/11/24 00:37:12;;;;;;;23.35;5.00;;;12.10;99.90;;;;;;5077841;28;20420;-78
2023/11/24 00:39:37;;;;;;;25.52;6.47;;;12.10;99.90;;;;;;5056246;28;20087;-78
2023/11/24 00:42:03;;;;;;;34.50;5.72;;;12.00;99.90;;;;;;5066677;28;20497;-78
2023/11/24 00:44:29;;;;;;;33.60;5.80;;;12.00;99.90;;;;;;5057836;28;20033;-78
2023/11/24 00:46:55;;;;;;;38.38;6.18;;;12.00;99.90;;;;;;5066042;28;20099;-77
2023/11/24 00:49:20;;;;;;;29.73;6.40;;;12.00;99.90;;;;;;5070119;28;20509;-78
2023/11/24 00:51:47;;;;;;;25.40;5.38;;;12.00;99.90;;;;;;5060203;28;20020;-78
2023/11/24 00:54:13;;;;;;;30.25;6.13;;;12.00;99.90;;;;;;5067247;28;20047;-78
2023/11/24 00:56:38;;;;;;;29.70;5.22;;;12.00;99.90;;;;;;5063520;28;20471;-78
2023/11/24 00:59:05;;;;;;;26.17;5.25;;;12.00;99.90;;;;;;5067413;28;20036;-78
2023/11/24 01:01:32;;;;;;;32.75;6.05;;;11.90;99.90;;;;;;5061571;28;20031;-78
2023/11/24 01:03:58;;;;;;;33.10;6.05;;;11.90;99.90;;;;;;5066127;28;20020;-78
2023/11/24 01:06:24;;;;;;;32.72;6.22;;;11.90;99.90;;;;;;5068238;28;20032;-78
2023/11/24 01:08:50;;;;;;;27.27;5.85;;;12.00;99.90;;;;;;5063999;28;20040;-78
2023/11/24 01:11:16;;;;;;;30.80;5.85;;;11.90;99.90;;;;;;5062556;28;20194;-78
2023/11/24 01:13:42;;;;;;;27.88;4.82;;;12.00;99.90;;;;;;5066681;28;20052;-78
2023/11/24 01:16:08;;;;;;;34.10;6.38;;;11.90;99.90;;;;;;5066801;28;20028;-78
2023/11/24 01:18:37;;;;;;;27.58;6.43;;;11.90;99.90;;;;;;5067348;28;20016;-78
2023/11/24 01:21:07;;;;;;;31.17;6.18;;;11.80;99.90;;;;;;5070417;28;20021;-78
2023/11/24 01:23:33;;;;;;;27.02;6.03;;;11.80;99.90;;;;;;5067455;28;20051;-78
2023/11/24 01:25:59;;;;;;;30.80;5.95;;;11.80;99.90;;;;;;5069348;28;20115;-76
2023/11/24 01:28:25;;;;;;;28.45;5.90;;;11.80;99.90;;;;;;5068820;28;20014;-77
2023/11/24 01:30:51;;;;;;;25.92;5.50;;;11.70;99.90;;;;;;5067438;28;20025;-78
2023/11/24 01:33:17;;;;;;;25.25;5.93;;;11.70;99.90;;;;;;5058380;28;20036;-78
2023/11/24 01:35:43;;;;;;;28.58;6.07;;;11.70;99.90;;;;;;5068960;28;20027;-79
2023/11/24 01:38:09;;;;;;;30.50;6.60;;;11.60;99.90;;;;;;5071649;28;20028;-78
2023/11/24 01:40:37;;;;;;;26.40;5.13;;;11.40;99.90;;;;;;5069159;28;20108;-78
2023/11/24 01:43:02;;;;;;;32.55;5.57;;;11.20;99.90;;;;;;5075412;28;20017;-78
2023/11/24 01:45:28;;;;;;;34.78;5.63;;;11.10;99.90;;;;;;5062229;28;20086;-77
2023/11/24 01:47:54;;;;;;;28.95;4.82;;;11.30;99.90;;;;;;5069149;28;20020;-78
2023/11/24 01:50:20;;;;;;;29.85;4.85;;;11.40;99.90;;;;;;5070036;28;20021;-77
2023/11/24 01:52:48;;;;;;;30.75;4.45;;;11.40;99.90;;;;;;5066730;28;20437;-78
2023/11/24 01:55:16;;;;;;;26.13;4.60;;;11.40;99.90;;;;;;5067317;28;20048;-78
2023/11/24 01:57:42;;;;;;;23.83;5.07;;;11.50;99.90;;;;;;5074584;28;20021;-78
2023/11/24 02:00:13;;;;;;;19.85;3.17;;;11.40;99.90;;;;;;5063130;28;20025;-77
2023/11/24 02:02:42;;;;;;;16.40;4.28;;;11.30;99.90;;;;;;5068160;28;20028;-78
2023/11/24 02:05:08;;;;;;;20.02;3.55;;;11.30;99.90;;;;;;5069040;28;20032;-78
2023/11/24 02:07:35;;;;;;;17.83;3.47;;;11.30;99.90;;;;;;5063568;28;20081;-78
2023/11/24 02:10:01;;;;;;;23.95;4.57;;;11.40;99.90;;;;;;5064122;28;20029;-78
2023/11/24 02:12:27;;;;;;;26.27;3.95;;;11.30;99.90;;;;;;5067004;28;20483;-78
2023/11/24 02:14:53;;;;;;;18.13;3.90;;;11.30;99.90;;;;;;5062830;28;20025;-78
2023/11/24 02:17:19;;;;;;;21.73;3.20;;;11.40;99.90;;;;;;5061018;28;20054;-78
2023/11/24 02:19:46;;;;;;;15.32;3.08;;;11.40;99.90;;;;;;5064479;28;20048;-78
2023/11/24 02:22:11;;;;;;;23.80;4.03;;;11.30;99.90;;;;;;5066580;28;20040;-78
2023/11/24 02:24:37;;;;;;;18.45;3.42;;;11.30;99.90;;;;;;5074677;28;20111;-78
2023/11/24 02:27:05;;;;;;;17.80;3.85;;;11.30;99.90;;;;;;5067471;28;20068;-78
2023/11/24 02:29:32;;;;;;;17.50;3.85;;;11.30;99.90;;;;;;5062921;28;20025;-78
2023/11/24 02:31:58;;;;;;;19.40;3.90;;;11.30;99.90;;;;;;5068694;28;20016;-78
2023/11/24 02:34:23;;;;;;;22.27;4.45;;;11.20;99.90;;;;;;5072158;28;20040;-78
2023/11/24 02:36:49;;;;;;;19.80;3.65;;;11.30;99.90;;;;;;5061139;28;20090;-78
2023/11/24 02:39:15;;;;;;;27.65;4.20;;;11.30;99.90;;;;;;5074247;28;20092;-78
2023/11/24 02:41:41;;;;;;;13.20;3.95;;;11.30;99.90;;;;;;5058176;28;20090;-78
2023/11/24 02:44:07;;;;;;;21.58;3.60;;;11.20;99.90;;;;;;5062715;28;20028;-78
2023/11/24 02:46:33;;;;;;;18.67;2.97;;;11.20;99.90;;;;;;5062715;28;20028;-78
2023/11/24 02:48:58;;;;;;;20.42;4.00;;;11.10;99.90;;;;;;5080338;28;20157;-78
2023/11/24 02:51:24;;;;;;;19.42;4.07;;;11.10;99.90;;;;;;5063387;28;20103;-78
2023/11/24 02:53:50;;;;;;;16.92;3.60;;;10.90;99.90;;;;;;5075157;28;20028;-78
2023/11/24 02:56:16;;;;;;;22.25;4.10;;;10.80;99.90;;;;;;5069030;28;20432;-77
2023/11/24 02:58:42;;;;;;;16.15;3.38;;;10.80;99.90;;;;;;5065785;28;20043;-78
2023/11/24 03:01:08;;;;;;;24.42;3.60;;;10.80;99.90;;;;;;5069876;28;20016;-76
2023/11/24 03:03:34;;;;;;;19.83;4.05;;;10.70;99.90;;;;;;5060205;28;20021;-78
2023/11/24 03:06:06;;;;;;;16.02;2.80;;;10.70;99.90;;;;;;5061036;28;20515;-77
2023/11/24 03:08:33;;;;;;;16.33;3.53;;;10.70;99.90;;;;;;5074257;28;20030;-77
2023/11/24 03:11:04;;;;;;;15.25;2.95;;;10.60;99.90;;;;;;5062447;28;20033;-77
2023/11/24 03:13:31;;;;;;;13.65;2.83;;;10.70;99.90;;;;;;5059965;28;20043;-78
2023/11/24 03:15:56;;;;;;;18.50;3.22;;;10.70;99.90;;;;;;5063804;28;20061;-78
2023/11/24 03:18:23;;;;;;;19.65;3.78;;;10.60;99.90;;;;;;5065892;28;20471;-78
2023/11/24 03:20:48;;;;;;;18.35;3.70;;;10.60;99.90;;;;;;5062732;28;20027;-78
2023/11/24 03:23:14;;;;;;;16.67;3.20;;;10.60;99.90;;;;;;5066380;28;20012;-78
2023/11/24 03:25:40;;;;;;;14.00;3.33;;;10.70;99.90;;;;;;5071265;28;20090;-78
2023/11/24 03:28:06;;;;;;;16.58;3.35;;;10.70;99.90;;;;;;5074754;28;20021;-78
2023/11/24 03:30:32;;;;;;;13.57;3.58;;;10.70;99.90;;;;;;5069755;28;20085;-77
2023/11/24 03:32:59;;;;;;;16.35;3.58;;;10.60;99.90;;;;;;5060744;28;20020;-77
2023/11/24 03:35:24;;;;;;;14.88;3.45;;;10.70;99.90;;;;;;5069248;28;20468;-78
2023/11/24 03:37:50;;;;;;;16.90;3.85;;;10.60;99.90;;;;;;5071745;28;20111;-78
2023/11/24 03:40:16;;;;;;;17.33;2.97;;;10.60;99.90;;;;;;5067318;28;20375;-78
2023/11/24 03:42:43;;;;;;;15.52;2.55;;;10.60;99.90;;;;;;5064870;28;20025;-78
2023/11/24 03:45:09;;;;;;;16.55;4.07;;;10.50;99.90;;;;;;5056728;28;20024;-78
2023/11/24 03:47:36;;;;;;;17.63;2.80;;;10.50;99.90;;;;;;5067095;28;20028;-78
2023/11/24 03:50:01;;;;;;;13.30;2.65;;;10.50;99.90;;;;;;5062458;28;20024;-77
2023/11/24 03:52:27;;;;;;;16.30;2.90;;;10.50;99.90;;;;;;5065744;28;20439;-78
2023/11/24 03:54:53;;;;;;;14.73;2.88;;;10.50;99.90;;;;;;5065301;28;20032;-78
2023/11/24 03:57:19;;;;;;;11.63;2.47;;;10.40;99.90;;;;;;5073287;28;20048;-78
2023/11/24 03:59:45;;;;;;;14.50;2.83;;;10.30;99.90;;;;;;5067156;28;20512;-78
2023/11/24 04:02:10;;;;;;;12.90;2.90;;;10.30;99.90;;;;;;5077217;28;20028;-78
2023/11/24 04:04:36;;;;;;;15.85;2.80;;;10.20;99.90;;;;;;5073418;28;20025;-78
2023/11/24 04:07:02;;;;;;;10.40;2.53;;;10.20;99.90;;;;;;5062147;28;20040;-78
2023/11/24 04:09:28;;;;;;;12.35;2.78;;;10.20;99.90;;;;;;5059718;28;20548;-77
2023/11/24 04:11:54;;;;;;;18.02;2.45;;;10.20;99.90;;;;;;5067564;28;20466;-78
2023/11/24 04:14:21;;;;;;;18.70;2.55;;;10.10;99.90;;;;;;5075307;28;20025;-78
2023/11/24 04:16:47;;;;;;;13.20;2.60;;;10.00;99.90;;;;;;5058290;28;20049;-78
2023/11/24 04:19:13;;;;;;;16.58;2.97;;;10.00;99.90;;;;;;5060761;28;20056;-78
2023/11/24 04:21:40;;;;;;;12.57;2.60;;;9.90;99.90;;;;;;5059477;28;20052;-78
2023/11/24 04:24:07;;;;;;;15.68;2.92;;;10.00;99.90;;;;;;5071867;28;20078;-78
2023/11/24 04:26:33;;;;;;;13.93;2.83;;;10.10;99.90;;;;;;5068237;28;20082;-78
2023/11/24 04:28:58;;;;;;;12.57;2.42;;;10.00;99.90;;;;;;5063101;28;20024;-78
2023/11/24 04:31:24;;;;;;;13.98;2.88;;;10.00;99.90;;;;;;5065475;28;20406;-78
2023/11/24 04:33:50;;;;;;;13.60;2.40;;;10.00;99.90;;;;;;5058460;28;20458;-78
2023/11/24 04:36:17;;;;;;;15.25;3.05;;;9.90;99.90;;;;;;5065252;28;20032;-78
2023/11/24 04:38:45;;;;;;;13.25;2.47;;;9.90;99.90;;;;;;5071313;28;20012;-78
2023/11/24 04:41:12;;;;;;;17.60;2.50;;;9.90;99.90;;;;;;5073098;28;20021;-77
2023/11/24 04:43:38;;;;;;;18.38;3.10;;;9.90;99.90;;;;;;5058744;28;20024;-78
2023/11/24 04:46:06;;;;;;;17.38;2.90;;;9.90;99.90;;;;;;5075440;28;20020;-78
2023/11/24 04:48:34;;;;;;;16.20;3.83;;;9.80;99.90;;;;;;5083087;28;20016;-78
2023/11/24 04:50:59;;;;;;;11.43;2.90;;;9.80;99.90;;;;;;5070216;28;20465;-77
2023/11/24 04:53:25;;;;;;;17.42;3.17;;;9.70;99.90;;;;;;5066583;28;20036;-78
2023/11/24 04:55:51;;;;;;;18.05;2.97;;;9.80;99.90;;;;;;5074172;28;20475;-76
2023/11/24 04:58:17;;;;;;;14.55;2.95;;;9.80;99.90;;;;;;5063288;28;20017;-77
2023/11/24 05:00:42;;;;;;;16.13;3.15;;;9.80;99.90;;;;;;5053894;28;20394;-76
2023/11/24 05:03:08;;;;;;;13.60;2.60;;;9.80;99.90;;;;;;5066774;28;20452;-77
2023/11/24 05:05:33;;;;;;;19.00;3.58;;;9.80;99.90;;;;;;5063871;28;20038;-76
2023/11/24 05:07:59;;;;;;;18.58;3.30;;;9.80;99.90;;;;;;5072555;28;20024;-76
2023/11/24 05:10:25;;;;;;;17.23;3.15;;;9.80;99.90;;;;;;5057449;28;20471;-77
2023/11/24 05:12:51;;;;;;;20.15;3.55;;;9.80;99.90;;;;;;5065998;28;20028;-76
2023/11/24 05:15:16;;;;;;;20.27;2.92;;;9.80;99.90;;;;;;5052708;28;20067;-77
2023/11/24 05:17:42;;;;;;;19.70;3.65;;;9.90;99.90;;;;;;5050653;28;20025;-77
2023/11/24 05:20:12;;;;;;;26.35;4.03;;;9.80;99.90;;;;;;5050604;28;20071;-76
2023/11/24 05:22:38;;;;;;;20.25;3.78;;;9.70;99.90;;;;;;5056262;28;20029;-77
2023/11/24 05:25:05;;;;;;;19.23;3.20;;;9.80;99.90;;;;;;5065882;28;20017;-76
2023/11/24 05:27:31;;;;;;;16.13;3.03;;;9.80;99.90;;;;;;5082665;28;20029;-76
2023/11/24 05:29:58;;;;;;;24.25;3.67;;;9.80;99.90;;;;;;5065606;28;20093;-77
2023/11/24 05:32:24;;;;;;;19.83;3.58;;;9.70;99.90;;;;;;5064701;28;20028;-76
2023/11/24 05:34:50;;;;;;;28.58;3.97;;;9.60;99.90;;;;;;5066893;28;20039;-76
2023/11/24 05:37:17;;;;;;;14.27;2.80;;;9.60;99.90;;;;;;5072567;28;20073;-76
2023/11/24 05:39:43;;;;;;;17.90;3.15;;;9.60;99.90;;;;;;5051788;28;20486;-76
2023/11/24 05:42:09;;;;;;;14.85;3.35;;;9.70;99.90;;;;;;5061953;28;20044;-76
2023/11/24 05:44:34;;;;;;;11.68;3.22;;;9.70;99.90;;;;;;5055292;28;20044;-76
2023/11/24 05:47:04;;;;;;;13.63;3.10;;;9.80;99.90;;;;;;5061134;28;20021;-76
2023/11/24 05:49:32;;;;;;;20.63;2.78;;;9.70;99.90;;;;;;5050232;28;20399;-77
2023/11/24 05:51:58;;;;;;;14.77;2.78;;;9.70;99.90;;;;;;5051997;28;20025;-76
2023/11/24 05:54:24;;;;;;;18.08;2.75;;;9.70;99.90;;;;;;5059694;28;20051;-76
2023/11/24 05:56:49;;;;;;;13.50;2.15;;;9.70;99.90;;;;;;5057319;28;20027;-76
2023/11/24 05:59:15;;;;;;;13.98;2.28;;;9.80;99.90;;;;;;5061035;28;20035;-76
2023/11/24 06:01:42;;;;;;;10.88;2.67;;;9.70;99.90;;;;;;5061980;28;20052;-76
2023/11/24 06:04:09;;;;;;;16.38;3.13;;;9.70;99.90;;;;;;5066981;28;20017;-77
2023/11/24 06:06:35;;;;;;;10.70;2.33;;;9.80;99.90;;;;;;5055686;28;20029;-76
2023/11/24 06:09:02;;;;;;;14.35;2.60;;;9.80;99.90;;;;;;5058680;28;20360;-76
2023/11/24 06:11:28;;;;;;;9.98;2.30;;;9.80;99.90;;;;;;5056504;28;20037;-76
2023/11/24 06:13:54;;;;;;;10.38;2.10;;;9.90;99.90;;;;;;5057466;28;20020;-76
2023/11/24 06:16:20;;;;;;;13.95;2.35;;;9.70;99.90;;;;;;5064156;28;20506;-76
2023/11/24 06:18:47;;;;;;;11.70;2.67;;;9.80;99.90;;;;;;5066243;28;20074;-76
2023/11/24 06:21:12;;;;;;;15.10;2.35;;;9.80;99.90;;;;;;5064224;28;20021;-76
2023/11/24 06:23:39;;;;;;;16.88;3.15;;;9.80;99.90;;;;;;5068345;28;20490;-76
2023/11/24 06:26:08;;;;;;;13.77;2.30;;;9.90;99.90;;;;;;5060831;28;20032;-76
2023/11/24 06:28:34;;;;;;;8.85;2.17;;;9.90;99.90;;;;;;5065837;28;20028;-76
2023/11/24 06:31:00;;;;;;;8.38;2.25;;;9.90;99.90;;;;;;5053992;28;20078;-76
2023/11/24 06:33:26;;;;;;;9.93;2.40;;;9.80;99.90;;;;;;5072029;28;20034;-76
2023/11/24 06:35:53;;;;;;;11.30;2.35;;;9.80;99.90;;;;;;5068577;28;20028;-76
2023/11/24 06:38:19;;;;;;;11.00;1.70;;;9.70;99.90;;;;;;5080936;28;20016;-76
2023/11/24 06:40:45;;;;;;;11.77;2.03;;;9.70;99.90;;;;;;5078229;28;20024;-76
2023/11/24 06:43:10;;;;;;;6.50;1.77;;;9.70;99.90;;;;;;5067525;28;20024;-76
2023/11/24 06:45:36;;;;;;;9.00;2.20;;;9.60;99.90;;;;;;5080611;28;20024;-77
2023/11/24 06:48:02;;;;;;;11.30;1.98;;;9.70;99.90;;;;;;5073554;28;20025;-76
2023/11/24 06:50:28;;;;;;;10.52;2.33;;;9.60;99.90;;;;;;5072517;28;20548;-76
2023/11/24 06:52:55;;;;;;;11.63;2.10;;;9.50;99.90;;;;;;5068212;28;20399;-76
2023/11/24 06:55:21;;;;;;;15.65;2.78;;;9.50;99.90;;;;;;5065129;28;20041;-77
2023/11/24 06:57:47;;;;;;;10.80;2.72;;;9.50;99.90;;;;;;5071776;28;20035;-76
2023/11/24 07:00:17;;;;;;;10.88;2.40;;;9.50;99.90;;;;;;5073091;28;20016;-76
2023/11/24 07:02:48;;;;;;;10.75;2.58;;;9.50;99.90;;;;;;5072063;28;20023;-76
2023/11/24 07:05:17;;;;;;;8.77;2.20;;;9.40;99.90;;;;;;5067385;28;20028;-77
2023/11/24 07:07:44;;;;;;;6.65;1.65;;;9.50;99.90;;;;;;5070539;28;20244;-76
2023/11/24 07:10:13;;;;;;;11.77;1.80;;;9.50;99.90;;;;;;5062691;28;20059;-76
2023/11/24 07:12:42;;;;;;;11.90;2.10;;;9.40;99.90;;;;;;5070879;28;20037;-77
2023/11/24 07:15:10;;;;;;;9.70;1.58;;;9.40;99.90;;;;;;5068255;28;20024;-76
2023/11/24 07:17:36;;;;;;;9.75;1.92;;;9.60;99.90;;;;;;5065482;28;20474;-76
2023/11/24 07:20:03;;;;;;;8.35;2.45;;;9.50;99.90;;;;;;5060665;28;20374;-77
2023/11/24 07:22:30;;;;;;;8.30;2.53;;;9.60;99.90;;;;;;5063342;28;20028;-76
2023/11/24 07:24:57;;;;;;;9.48;1.65;;;9.60;99.90;;;;;;5063837;28;20479;-77
2023/11/24 07:27:23;;;;;;;7.47;1.77;;;9.60;99.90;;;;;;5059944;28;20027;-77
2023/11/24 07:29:49;;;;;;;9.85;2.00;;;9.50;99.90;;;;;;5071163;28;20012;-77
2023/11/24 07:32:16;;;;;;;9.18;1.75;;;9.50;99.90;;;;;;5068659;28;20016;-76
2023/11/24 07:34:43;;;;;;;6.90;1.98;;;9.60;99.90;;;;;;5075130;28;20035;-76
2023/11/24 07:37:09;;;;;;;9.63;1.70;;;9.50;99.90;;;;;;5063281;28;20029;-77
2023/11/24 07:39:34;;;;;;;11.35;2.30;;;9.50;99.90;;;;;;5069814;28;20467;-76
2023/11/24 07:42:00;;;;;;;12.02;2.30;;;9.50;99.90;;;;;;5073000;28;20081;-77
2023/11/24 07:44:30;;;;;;;11.85;2.15;;;9.50;99.90;;;;;;5069008;28;20387;-76
2023/11/24 07:46:56;;;;;;;12.23;2.00;;;9.50;99.90;;;;;;5064851;28;20025;-76
2023/11/24 07:49:22;;;;;;;15.75;2.50;;;9.40;99.90;;;;;;5060801;28;20392;-76
2023/11/24 07:51:48;;;;;;;9.30;1.80;;;9.40;99.90;;;;;;5066629;28;20056;-76
2023/11/24 07:54:14;;;;;;;11.50;1.90;;;9.30;99.90;;;;;;5067571;28;20490;-76
2023/11/24 07:56:40;;;;;;;7.78;1.55;;;9.40;99.90;;;;;;5070937;28;20032;-76
2023/11/24 07:59:05;;;;;;;12.70;1.65;;;9.50;99.90;;;;;;5063446;28;20107;-76
2023/11/24 08:01:31;;;;;;;9.93;2.00;;;9.40;99.90;;;;;;5063908;28;20082;-76
2023/11/24 08:03:57;;;;;;;12.05;2.25;;;9.40;99.90;;;;;;5072332;28;20052;-77
2023/11/24 08:06:24;;;;;;;9.82;2.35;;;9.50;99.90;;;;;;5036432;28;20586;-79
2023/11/24 08:08:49;;;;;;;10.05;2.75;;;9.50;99.90;;;;;;5042079;28;20077;-77
2023/11/24 08:11:15;;;;;;;9.15;2.20;;;9.50;99.90;;;;;;5059014;28;20024;-77
2023/11/24 08:13:42;;;;;;;12.15;2.30;;;9.30;99.90;;;;;;5054056;28;20040;-77
2023/11/24 08:16:07;;;;;;;11.43;2.15;;;9.40;99.90;;;;;;5055597;28;20692;-76
2023/11/24 08:18:35;;;;;;;15.85;2.45;;;9.30;99.90;;;;;;5056715;28;20044;-77
2023/11/24 08:21:02;;;;;;;13.38;2.47;;;9.30;99.90;;;;;;5054041;28;20029;-76
2023/11/24 08:23:28;;;;;;;12.57;2.17;;;9.30;99.90;;;;;;5056378;28;20451;-76
2023/11/24 08:25:53;;;;;;;10.40;1.90;;;9.30;99.90;;;;;;5054884;28;20139;-76
2023/11/24 08:28:19;;;;;;;8.25;2.30;;;9.20;99.90;;;;;;5054511;28;20013;-76
2023/11/24 08:30:45;;;;;;;6.35;1.40;;;9.30;99.90;;;;;;5051221;28;20496;-76
2023/11/24 08:33:11;;;;;;;11.23;2.10;;;9.30;99.90;;;;;;5049421;28;20021;-77
2023/11/24 08:35:38;;;;;;;8.32;1.65;;;9.20;99.90;;;;;;5044838;28;20399;-76
2023/11/24 08:38:04;;;;;;;12.95;2.13;;;9.20;99.90;;;;;;5051248;28;20024;-76
2023/11/24 08:40:30;;;;;;;12.02;2.17;;;9.10;99.90;;;;;;5052912;28;20021;-77
2023/11/24 08:42:57;;;;;;;11.13;1.55;;;9.10;99.90;;;;;;5053459;28;20187;-76
2023/11/24 08:45:23;;;;;;;9.65;1.60;;;9.20;99.90;;;;;;5052801;28;20067;-76
2023/11/24 08:47:49;;;;;;;7.85;1.95;;;9.20;99.90;;;;;;5051630;28;20079;-76
2023/11/24 08:50:16;;;;;;;15.18;2.28;;;9.20;99.90;;;;;;5046145;28;20056;-77
2023/11/24 08:52:42;;;;;;;9.18;2.55;;;9.40;99.90;;;;;;5046398;28;20089;-76
2023/11/24 08:55:09;;;;;;;10.27;2.05;;;9.40;99.90;;;;;;5042089;28;20207;-76
2023/11/24 08:57:35;;;;;;;5.80;1.80;;;9.50;99.90;;;;;;5035767;28;20093;-77
2023/11/24 09:00:01;;;;;;;10.38;1.90;;;9.50;99.90;;;;;;5047137;28;20016;-76
2023/11/24 09:02:28;;;;;;;13.00;2.60;;;9.50;99.90;;;;;;5047591;28;20063;-77
2023/11/24 09:04:54;;;;;;;10.35;2.20;;;9.60;99.90;;;;;;5051189;28;20045;-76
2023/11/24 09:07:20;;;;;;;13.52;2.63;;;9.60;99.90;;;;;;5052210;28;20035;-76
2023/11/24 09:09:46;;;;;;;11.38;1.98;;;9.60;99.90;;;;;;5052134;28;20027;-76
2023/11/24 09:12:12;;;;;;;14.15;2.28;;;9.70;99.90;;;;;;5044727;28;20455;-77
2023/11/24 09:14:40;;;;;;;5.68;1.70;;;9.70;99.90;;;;;;5051206;28;20969;-77
2023/11/24 09:17:06;;;;;;;12.18;2.03;;;9.70;99.90;;;;;;5050087;28;20037;-77
2023/11/24 09:19:33;;;;;;;9.95;2.15;;;9.50;99.90;;;;;;5048115;28;20045;-78
2023/11/24 09:22:00;;;;;;;5.95;1.70;;;9.30;99.90;;;;;;5053222;28;20021;-78
2023/11/24 09:24:27;;;;;;;1.58;0.70;;;8.90;99.90;;;;;;5049631;28;20026;-78
2023/11/24 09:26:55;;;;;;;4.75;1.55;;;8.90;99.90;;;;;;5052979;28;20084;-77
2023/11/24 09:29:21;;;;;;;4.00;1.00;;;8.90;99.90;;;;;;5054917;28;20104;-76
2023/11/24 09:31:47;;;;;;;2.97;0.70;;;9.00;99.90;;;;;;5052587;28;20092;-76
2023/11/24 09:34:12;;;;;;;4.32;1.10;;;9.00;99.90;;;;;;5052005;28;20037;-77
2023/11/24 09:36:42;;;;;;;4.40;0.90;;;9.00;99.90;;;;;;5049884;28;20448;-77
2023/11/24 09:39:10;;;;;;;4.88;1.15;;;8.90;99.90;;;;;;5050983;28;20096;-78
2023/11/24 09:41:41;;;;;;;4.43;1.13;;;9.00;99.90;;;;;;5050837;28;20100;-77
2023/11/24 09:44:11;;;;;;;5.55;1.50;;;9.10;99.90;;;;;;5053334;28;20017;-77
2023/11/24 09:46:41;;;;;;;7.13;1.52;;;9.10;99.90;;;;;;5048316;28;20456;-76
2023/11/24 09:49:10;;;;;;;7.60;1.50;;;9.10;99.90;;;;;;5054878;28;20016;-77
2023/11/24 09:51:38;;;;;;;3.47;1.00;;;9.00;99.90;;;;;;5054077;28;20016;-77
2023/11/24 09:54:05;;;;;;;6.03;1.45;;;8.80;99.90;;;;;;5054873;28;20040;-77
2023/11/24 09:56:32;;;;;;;13.27;1.55;;;8.70;99.90;;;;;;5053227;28;20410;-77
2023/11/24 09:58:57;;;;;;;9.18;1.15;;;8.80;99.90;;;;;;5050432;28;20063;-76
2023/11/24 10:01:23;;;;;;;6.13;1.08;;;8.90;99.90;;;;;;5055509;28;20100;-77
2023/11/24 10:03:53;;;;;;;4.35;0.90;;;8.80;99.90;;;;;;5048335;28;20101;-76
2023/11/24 10:06:19;;;;;;;5.32;1.23;;;8.90;99.90;;;;;;5054819;28;20052;-77
2023/11/24 10:08:46;;;;;;;6.82;1.40;;;8.90;99.90;;;;;;5047574;28;20063;-76
2023/11/24 10:11:27;;;;;;;7.00;1.30;;;8.90;99.90;;;;;;5053326;28;20043;-77
2023/11/24 10:13:56;;;;;;;7.53;1.10;;;8.90;99.90;;;;;;5055983;28;20179;-76
2023/11/24 10:16:23;;;;;;;9.00;1.48;;;9.00;99.90;;;;;;5059280;28;20029;-78
2023/11/24 10:18:50;;;;;;;3.92;0.82;;;9.00;99.90;;;;;;5059147;28;20091;-77
2023/11/24 10:21:16;;;;;;;5.10;1.13;;;9.10;99.90;;;;;;5058020;28;20585;-77
2023/11/24 10:23:41;;;;;;;2.42;0.90;;;9.10;99.90;;;;;;5055778;28;20036;-76
2023/11/24 10:26:17;;;;;;;7.40;1.17;;;9.10;99.90;;;;;;5058824;28;20067;-76
2023/11/24 10:28:46;;;;;;;5.53;1.40;;;9.10;99.90;;;;;;5055585;28;20526;-76
2023/11/24 10:31:13;;;;;;;4.72;1.33;;;9.00;99.90;;;;;;5050710;28;20034;-79
2023/11/24 10:33:43;;;;;;;7.90;1.05;;;9.00;99.90;;;;;;5047154;28;20047;-77
2023/11/24 10:36:09;;;;;;;5.20;1.20;;;9.10;99.90;;;;;;5052013;28;20107;-77
2023/11/24 10:38:39;;;;;;;5.32;1.40;;;9.20;99.90;;;;;;5063335;28;20045;-77
2023/11/24 10:41:18;;;;;;;5.00;1.08;;;9.20;99.90;;;;;;5059908;28;20028;-76
2023/11/24 10:43:47;;;;;;;9.73;1.38;;;9.20;99.90;;;;;;5059875;28;20021;-76
2023/11/24 10:46:16;;;;;;;3.63;1.35;;;9.20;99.90;;;;;;5049384;28;20033;-77
2023/11/24 10:49:03;;;;;;;6.47;1.08;;;9.20;99.90;;;;;;5053010;28;20052;-77
2023/11/24 10:51:56;;;;;;;4.35;0.90;;;9.30;99.90;;;;;;5056689;28;20724;-76
2023/11/24 10:54:38;;;;;;;6.28;1.40;;;9.30;99.90;;;;;;5056668;28;20034;-76
2023/11/24 10:57:06;;;;;;;7.83;1.47;;;9.30;99.90;;;;;;5050788;28;20526;-77
2023/11/24 10:59:35;;;;;;;10.93;1.38;;;9.30;99.90;;;;;;5051973;28;20017;-77
2023/11/24 11:02:06;;;;;;;6.50;1.13;;;9.30;99.90;;;;;;5056254;28;20025;-76
2023/11/24 11:04:37;;;;;;;10.85;1.83;;;9.30;99.90;;;;;;5044753;28;20017;-77
2023/11/24 11:07:16;;;;;;;6.93;2.00;;;9.40;99.90;;;;;;5034757;28;20032;-77
2023/11/24 11:09:58;;;;;;;9.35;1.90;;;9.40;99.90;;;;;;5053972;28;20108;-79
2023/11/24 11:12:38;;;;;;;9.13;1.40;;;9.30;99.90;;;;;;5055260;28;20032;-77
2023/11/24 11:15:09;;;;;;;8.85;1.60;;;9.30;99.90;;;;;;5058808;28;20506;-76
2023/11/24 11:17:35;;;;;;;11.70;2.20;;;9.40;99.90;;;;;;5053951;28;20024;-77
2023/11/24 11:20:22;;;;;;;10.07;2.30;;;9.40;99.90;;;;;;5048513;28;20013;-77
2023/11/24 11:22:59;;;;;;;6.50;1.77;;;9.40;99.90;;;;;;5055029;28;20025;-78
2023/11/24 11:25:35;;;;;;;12.00;1.85;;;9.50;99.90;;;;;;5050508;28;20024;-77
2023/11/24 11:28:20;;;;;;;12.90;2.00;;;9.50;99.90;;;;;;5045391;28;20028;-77
2023/11/24 11:30:50;;;;;;;12.80;2.75;;;9.60;99.90;;;;;;5048760;28;20356;-77
2023/11/24 11:33:20;;;;;;;7.00;1.90;;;9.60;99.90;;;;;;5054792;28;20016;-77
2023/11/24 11:35:46;;;;;;;12.60;2.00;;;9.60;99.90;;;;;;5055186;28;20756;-76
2023/11/24 11:38:14;;;;;;;8.75;1.80;;;9.70;99.90;;;;;;5049651;28;20137;-77
2023/11/24 11:40:44;;;;;;;13.07;2.40;;;9.70;99.90;;;;;;5053844;28;20031;-76
2023/11/24 11:43:15;;;;;;;15.43;2.28;;;9.70;99.90;;;;;;5050425;28;20485;-77
2023/11/24 11:45:47;;;;;;;10.98;1.95;;;9.80;99.90;;;;;;5057635;28;20051;-77
2023/11/24 11:48:13;;;;;;;8.50;2.10;;;9.70;99.90;;;;;;5055015;28;20029;-77
2023/11/24 11:50:53;;;;;;;5.97;2.17;;;9.50;99.90;;;;;;5053447;28;20050;-77
2023/11/24 11:53:19;;;;;;;8.20;1.95;;;9.40;99.90;;;;;;5056565;28;20033;-77
2023/11/24 11:55:47;;;;;;;6.22;1.70;;;9.40;99.90;;;;;;5050692;28;20043;-77
2023/11/24 11:58:13;;;;;;;12.52;1.88;;;9.20;99.90;;;;;;5055005;28;20544;-78
2023/11/24 12:00:40;;;;;;;6.93;1.70;;;9.20;99.90;;;;;;5053469;28;20013;-77
2023/11/24 12:03:06;;;;;;;11.70;2.25;;;9.20;99.90;;;;;;5054057;28;20395;-77
2023/11/24 12:05:33;;;;;;;9.82;2.25;;;9.30;99.90;;;;;;5056562;28;20024;-77
2023/11/24 12:08:00;;;;;;;10.50;2.78;;;9.30;99.90;;;;;;5054071;28;20105;-78
2023/11/24 12:10:29;;;;;;;9.13;2.10;;;9.40;99.90;;;;;;5053222;28;20040;-79
2023/11/24 12:12:55;;;;;;;19.65;2.83;;;9.50;99.90;;;;;;5053364;28;20380;-78
2023/11/24 12:15:23;;;;;;;8.35;1.40;;;9.50;99.90;;;;;;5057297;28;20035;-77
2023/11/24 12:17:52;;;;;;;9.80;1.83;;;9.60;99.90;;;;;;5053114;28;20040;-79
2023/11/24 12:20:18;;;;;;;11.88;2.15;;;9.60;99.90;;;;;;5050512;28;20033;-77
2023/11/24 12:22:45;;;;;;;5.93;1.48;;;9.70;99.90;;;;;;5057587;28;20025;-78
2023/11/24 12:25:12;;;;;;;8.70;1.17;;;9.70;99.90;;;;;;5047875;28;20502;-77
2023/11/24 12:27:41;;;;;;;9.63;1.10;;;9.40;99.90;;;;;;5056767;28;20487;-77
2023/11/24 12:30:11;;;;;;;5.07;1.13;;;9.10;99.90;;;;;;5068119;28;20099;-78
2023/11/24 12:32:38;;;;;;;5.32;1.45;;;9.10;99.90;;;;;;5055804;28;20690;-77
2023/11/24 12:35:08;;;;;;;5.55;1.95;;;9.30;99.90;;;;;;5049742;28;20038;-77
2023/11/24 12:37:34;;;;;;;6.22;1.50;;;9.30;99.90;;;;;;5050962;28;20066;-78
2023/11/24 12:40:03;;;;;;;8.63;1.48;;;9.40;99.90;;;;;;5050104;28;20032;-77
2023/11/24 12:42:30;;;;;;;5.43;1.40;;;9.40;99.90;;;;;;5048521;28;20519;-78
2023/11/24 12:45:02;;;;;;;10.90;1.60;;;9.40;99.90;;;;;;5055237;28;20039;-77